createdAt,value
2016-07-23T00:00:56.085Z,99.99
2016-07-23T00:01:56.078Z,99.99
2016-07-23T00:02:56.068Z,99.99
2016-07-23T00:03:56.059Z,99.99
2016-07-23T00:04:56.049Z,99.99
2016-07-23T00:05:56.031Z,99.99
2016-07-23T00:06:55.319Z,99.99
2016-07-23T00:07:56.017Z,99.99
2016-07-23T00:08:56.008Z,99.99
2016-07-23T00:09:55.994Z,99.99
2016-07-23T00:10:55.268Z,99.99
2016-07-23T00:11:55.977Z,99.99
2016-07-23T00:12:55.978Z,99.99
2016-07-23T00:13:55.978Z,99.99
2016-07-23T00:14:55.225Z,99.99
2016-07-23T00:15:55.219Z,99.99
2016-07-23T00:16:55.938Z,99.99
2016-07-23T00:17:55.920Z,99.99
2016-07-23T00:18:55.903Z,99.99
2016-07-23T00:19:55.907Z,99.99
2016-07-23T00:20:55.181Z,99.99
2016-07-23T00:21:55.881Z,99.99
2016-07-23T00:22:55.874Z,99.99
2016-07-23T00:23:55.140Z,99.99
2016-07-23T00:24:55.151Z,99.99
2016-07-23T00:25:55.848Z,99.99
2016-07-23T00:26:55.118Z,99.99
2016-07-23T00:27:55.825Z,99.99
2016-07-23T00:28:55.809Z,99.99
2016-07-23T00:29:55.821Z,99.99
2016-07-23T00:30:55.799Z,99.99
2016-07-23T00:31:55.064Z,99.99
2016-07-23T00:32:55.067Z,99.99
2016-07-23T00:33:55.780Z,99.99
2016-07-23T00:34:55.760Z,99.99
2016-07-23T00:35:55.743Z,99.99
2016-07-23T00:36:55.738Z,99.99
2016-07-23T00:37:55.724Z,99.99
2016-07-23T00:38:55.715Z,99.99
2016-07-23T00:39:54.998Z,99.99
2016-07-23T00:40:54.981Z,99.99
2016-07-23T00:41:55.691Z,99.99
2016-07-23T00:42:55.675Z,99.99
2016-07-23T00:43:54.948Z,99.99
2016-07-23T00:44:55.671Z,99.99
2016-07-23T00:45:55.648Z,99.99
2016-07-23T00:46:54.937Z,99.99
2016-07-23T00:47:55.631Z,99.99
2016-07-23T00:48:55.623Z,99.99
2016-07-23T00:49:55.609Z,99.99
2016-07-23T00:50:55.592Z,99.99
2016-07-23T00:51:55.588Z,99.99
2016-07-23T00:52:55.578Z,99.99
2016-07-23T00:53:55.568Z,99.99
2016-07-23T00:54:54.843Z,99.99
2016-07-23T00:55:55.546Z,99.99
2016-07-23T00:56:55.536Z,99.99
2016-07-23T00:57:55.529Z,99.99
2016-07-23T00:58:54.802Z,99.99
2016-07-23T00:59:55.509Z,99.99
2016-07-23T01:00:54.799Z,99.99
2016-07-23T01:01:55.496Z,99.99
2016-07-23T01:02:54.782Z,99.99
2016-07-23T01:03:54.755Z,99.99
2016-07-23T01:04:55.471Z,99.99
2016-07-23T01:05:55.462Z,99.99
2016-07-23T01:06:55.532Z,99.99
2016-07-23T01:07:55.432Z,99.99
2016-07-23T01:08:55.430Z,99.99
2016-07-23T01:09:55.439Z,99.99
2016-07-23T01:10:55.453Z,99.99
2016-07-23T01:11:55.401Z,99.99
2016-07-23T01:12:55.391Z,99.99
2016-07-23T01:13:55.377Z,99.99
2016-07-23T01:14:55.364Z,99.99
2016-07-23T01:15:55.359Z,99.99
2016-07-23T01:16:54.626Z,99.99
2016-07-23T01:17:54.614Z,99.99
2016-07-23T01:18:55.322Z,99.99
2016-07-23T01:19:55.320Z,99.99
2016-07-23T01:20:55.305Z,99.99
2016-07-23T01:21:54.652Z,99.99
2016-07-23T01:22:55.286Z,99.99
2016-07-23T01:23:55.277Z,99.99
2016-07-23T01:24:55.268Z,99.99
2016-07-23T01:25:55.250Z,99.99
2016-07-23T01:26:55.248Z,99.99
2016-07-23T01:27:54.522Z,99.99
2016-07-23T01:28:55.222Z,99.99
2016-07-23T01:29:55.219Z,99.99
2016-07-23T01:30:55.223Z,99.99
2016-07-23T01:31:55.191Z,99.99
2016-07-23T01:32:55.188Z,99.99
2016-07-23T01:33:55.178Z,99.99
2016-07-23T01:34:55.157Z,99.99
2016-07-23T01:35:54.510Z,99.99
2016-07-23T01:36:55.143Z,99.99
2016-07-23T01:37:55.129Z,99.99
2016-07-23T01:38:55.132Z,99.99
2016-07-23T01:39:55.121Z,99.99
2016-07-23T01:40:55.095Z,99.99
2016-07-23T01:41:55.094Z,99.99
2016-07-23T01:42:55.086Z,99.99
2016-07-23T01:43:55.089Z,99.99
2016-07-23T01:44:55.083Z,99.99
2016-07-23T01:45:55.059Z,99.99
2016-07-23T01:46:55.047Z,99.99
2016-07-23T01:47:55.048Z,99.99
2016-07-23T01:48:55.028Z,99.99
2016-07-23T01:49:55.392Z,99.99
2016-07-23T01:50:55.021Z,99.99
2016-07-23T01:51:54.991Z,99.99
2016-07-23T01:52:54.991Z,99.99
2016-07-23T01:53:54.262Z,99.99
2016-07-23T01:54:54.982Z,99.99
2016-07-23T01:55:54.978Z,99.99
2016-07-23T01:56:54.943Z,99.99
2016-07-23T01:57:54.935Z,99.99
2016-07-23T01:58:54.926Z,99.99
2016-07-23T01:59:54.917Z,99.99
2016-07-23T02:00:54.903Z,99.99
2016-07-23T02:01:54.913Z,99.99
2016-07-23T02:02:54.890Z,99.99
2016-07-23T02:03:54.895Z,99.99
2016-07-23T02:04:54.149Z,99.99
2016-07-23T02:05:54.137Z,99.99
2016-07-23T02:06:54.128Z,99.99
2016-07-23T02:07:54.838Z,99.99
2016-07-23T02:08:54.820Z,99.99
2016-07-23T02:09:54.814Z,99.99
2016-07-23T02:10:54.101Z,99.99
2016-07-23T02:11:54.802Z,99.99
2016-07-23T02:12:54.788Z,99.99
2016-07-23T02:13:54.070Z,99.99
2016-07-23T02:14:54.046Z,99.99
2016-07-23T02:15:54.814Z,99.99
2016-07-23T02:16:54.745Z,99.99
2016-07-23T02:17:54.738Z,99.99
2016-07-23T02:18:54.717Z,99.99
2016-07-23T02:19:54.802Z,99.99
2016-07-23T02:20:54.706Z,99.99
2016-07-23T02:21:54.702Z,99.99
2016-07-23T02:22:54.693Z,99.99
2016-07-23T02:23:54.677Z,99.99
2016-07-23T02:24:53.952Z,99.99
2016-07-23T02:25:53.951Z,99.99
2016-07-23T02:26:54.648Z,99.99
2016-07-23T02:27:53.919Z,99.99
2016-07-23T02:28:54.631Z,99.99
2016-07-23T02:29:54.622Z,99.99
2016-07-23T02:30:54.607Z,99.99
2016-07-23T02:31:54.598Z,99.99
2016-07-23T02:32:54.581Z,99.99
2016-07-23T02:33:54.568Z,99.99
2016-07-23T02:34:53.851Z,99.99
2016-07-23T02:35:54.545Z,99.99
2016-07-23T02:36:53.832Z,99.99
2016-07-23T02:37:54.538Z,99.99
2016-07-23T02:38:54.530Z,99.99
2016-07-23T02:39:54.514Z,99.99
2016-07-23T02:40:54.514Z,99.99
2016-07-23T02:41:54.490Z,99.99
2016-07-23T02:42:54.485Z,99.99
2016-07-23T02:43:54.474Z,99.99
2016-07-23T02:44:54.468Z,99.99
2016-07-23T02:45:53.739Z,99.99
2016-07-23T02:46:54.445Z,99.99
2016-07-23T02:47:54.425Z,99.99
2016-07-23T02:48:54.418Z,99.99
2016-07-23T02:49:53.700Z,99.99
2016-07-23T02:50:53.678Z,99.99
2016-07-23T02:51:54.386Z,99.99
2016-07-23T02:52:54.374Z,99.99
2016-07-23T02:53:53.651Z,99.99
2016-07-23T02:54:54.372Z,99.99
2016-07-23T02:55:54.348Z,99.99
2016-07-23T02:56:54.342Z,99.99
2016-07-23T02:57:54.323Z,99.99
2016-07-23T02:58:54.321Z,99.99
2016-07-23T02:59:54.304Z,99.99
2016-07-23T03:00:54.293Z,99.99
2016-07-23T03:01:53.570Z,99.99
2016-07-23T03:02:53.631Z,99.99
2016-07-23T03:03:53.542Z,99.99
2016-07-23T03:04:54.256Z,99.99
2016-07-23T03:05:54.257Z,99.99
2016-07-23T03:06:54.232Z,99.99
2016-07-23T03:07:54.228Z,99.99
2016-07-23T03:08:54.217Z,99.99
2016-07-23T03:09:54.203Z,99.99
2016-07-23T03:10:54.200Z,99.99
2016-07-23T03:11:54.188Z,99.99
2016-07-23T03:12:53.466Z,99.99
2016-07-23T03:13:54.169Z,99.99
2016-07-23T03:14:53.436Z,99.99
2016-07-23T03:15:54.146Z,99.99
2016-07-23T03:16:53.428Z,99.99
2016-07-23T03:17:54.130Z,99.99
2016-07-23T03:18:54.112Z,99.99
2016-07-23T03:19:54.112Z,99.99
2016-07-23T03:20:54.109Z,99.99
2016-07-23T03:21:54.089Z,99.99
2016-07-23T03:22:54.075Z,99.99
2016-07-23T03:23:54.059Z,99.99
2016-07-23T03:24:54.048Z,99.99
2016-07-23T03:25:54.037Z,99.99
2016-07-23T03:26:54.038Z,99.99
2016-07-23T03:27:53.298Z,99.99
2016-07-23T03:28:54.005Z,99.99
2016-07-23T03:29:53.280Z,99.99
2016-07-23T03:30:53.983Z,99.99
2016-07-23T03:31:53.255Z,99.99
2016-07-23T03:32:53.259Z,99.99
2016-07-23T03:33:53.954Z,99.99
2016-07-23T03:34:53.224Z,99.99
2016-07-23T03:35:53.933Z,99.99
2016-07-23T03:36:53.929Z,99.99
2016-07-23T03:37:53.203Z,99.99
2016-07-23T03:38:53.911Z,99.99
2016-07-23T03:39:53.893Z,99.99
2016-07-23T03:40:53.880Z,99.99
2016-07-23T03:41:53.884Z,99.99
2016-07-23T03:42:53.855Z,99.99
2016-07-23T03:43:53.854Z,99.99
2016-07-23T03:44:53.125Z,99.99
2016-07-23T03:45:53.853Z,99.99
2016-07-23T03:46:53.120Z,99.99
2016-07-23T03:47:53.810Z,99.99
2016-07-23T03:48:53.796Z,99.99
2016-07-23T03:49:53.810Z,99.99
2016-07-23T03:50:53.776Z,99.99
2016-07-23T03:51:53.779Z,99.99
2016-07-23T03:52:53.780Z,99.99
2016-07-23T03:53:53.746Z,99.99
2016-07-23T03:54:53.729Z,99.99
2016-07-23T03:55:53.002Z,99.99
2016-07-23T03:56:53.716Z,99.99
2016-07-23T03:57:53.701Z,99.99
2016-07-23T03:58:53.700Z,99.99
2016-07-23T03:59:53.688Z,99.99
2016-07-23T04:00:53.667Z,99.99
2016-07-23T04:01:53.666Z,99.99
2016-07-23T04:02:53.659Z,99.99
2016-07-23T04:03:53.638Z,99.99
2016-07-23T04:04:53.637Z,99.99
2016-07-23T04:05:53.629Z,99.99
2016-07-23T04:06:53.610Z,99.99
2016-07-23T04:07:53.610Z,99.99
2016-07-23T04:08:53.595Z,99.99
2016-07-23T04:09:53.580Z,99.99
2016-07-23T04:10:53.568Z,99.99
2016-07-23T04:11:53.554Z,99.99
2016-07-23T04:12:52.839Z,99.99
2016-07-23T04:13:53.534Z,99.99
2016-07-23T04:14:53.526Z,99.99
2016-07-23T04:15:53.515Z,99.99
2016-07-23T04:16:53.511Z,99.99
2016-07-23T04:17:53.495Z,99.99
2016-07-23T04:18:53.479Z,99.99
2016-07-23T04:19:53.479Z,99.99
2016-07-23T04:20:53.464Z,99.99
2016-07-23T04:21:53.456Z,99.99
2016-07-23T04:22:53.441Z,99.99
2016-07-23T04:23:53.454Z,99.99
2016-07-23T04:24:53.419Z,99.99
2016-07-23T04:25:53.417Z,99.99
2016-07-23T04:26:53.420Z,99.99
2016-07-23T04:27:53.388Z,99.99
2016-07-23T04:28:53.409Z,99.99
2016-07-23T04:29:53.376Z,99.99
2016-07-23T04:30:53.421Z,99.99
2016-07-23T04:31:53.352Z,99.99
2016-07-23T04:32:53.389Z,99.99
2016-07-23T04:33:53.323Z,99.99
2016-07-23T04:34:53.356Z,99.99
2016-07-23T04:35:53.307Z,99.99
2016-07-23T04:36:53.350Z,99.99
2016-07-23T04:37:53.288Z,99.99
2016-07-23T04:38:53.293Z,99.99
2016-07-23T04:39:53.267Z,99.99
2016-07-23T04:40:53.260Z,99.99
2016-07-23T04:41:53.249Z,99.99
2016-07-23T04:42:53.233Z,99.99
2016-07-23T04:43:53.221Z,99.99
2016-07-23T04:44:53.231Z,99.99
2016-07-23T04:45:53.208Z,99.99
2016-07-23T04:46:53.241Z,99.99
2016-07-23T04:47:53.189Z,99.99
2016-07-23T04:48:53.174Z,99.99
2016-07-23T04:49:53.181Z,99.99
2016-07-23T04:50:53.210Z,99.99
2016-07-23T04:51:52.429Z,99.99
2016-07-23T04:52:53.136Z,99.99
2016-07-23T04:53:53.109Z,99.99
2016-07-23T04:54:52.395Z,99.99
2016-07-23T04:55:53.109Z,99.99
2016-07-23T04:56:53.088Z,99.99
2016-07-23T04:57:53.076Z,99.99
2016-07-23T04:58:53.067Z,99.99
2016-07-23T04:59:53.054Z,99.99
2016-07-23T05:00:53.045Z,99.99
2016-07-23T05:01:53.037Z,99.99
2016-07-23T05:02:52.316Z,99.99
2016-07-23T05:03:53.018Z,99.99
2016-07-23T05:04:53.005Z,99.99
2016-07-23T05:05:53.000Z,99.99
2016-07-23T05:06:52.988Z,99.99
2016-07-23T05:07:52.260Z,99.99
2016-07-23T05:08:52.969Z,99.99
2016-07-23T05:09:52.956Z,99.99
2016-07-23T05:10:52.948Z,99.99
2016-07-23T05:11:52.931Z,99.99
2016-07-23T05:12:52.918Z,99.99
2016-07-23T05:13:52.907Z,99.99
2016-07-23T05:14:52.898Z,99.99
2016-07-23T05:15:52.899Z,99.99
2016-07-23T05:16:52.889Z,99.99
2016-07-23T05:17:52.890Z,99.99
2016-07-23T05:18:52.860Z,99.99
2016-07-23T05:19:52.129Z,99.99
2016-07-23T05:20:52.124Z,99.99
2016-07-23T05:21:52.830Z,99.99
2016-07-23T05:22:52.815Z,99.99
2016-07-23T05:23:52.820Z,99.99
2016-07-23T05:24:52.087Z,99.99
2016-07-23T05:25:52.800Z,99.99
2016-07-23T05:26:52.791Z,99.99
2016-07-23T05:27:52.766Z,99.99
2016-07-23T05:28:52.757Z,99.99
2016-07-23T05:29:52.760Z,99.99
2016-07-23T05:30:52.735Z,99.99
2016-07-23T05:31:52.737Z,99.99
2016-07-23T05:32:52.731Z,99.99
2016-07-23T05:33:52.740Z,99.99
2016-07-23T05:34:52.702Z,99.99
2016-07-23T05:35:52.693Z,99.99
2016-07-23T05:36:52.678Z,99.99
2016-07-23T05:37:52.668Z,99.99
2016-07-23T05:38:52.661Z,99.99
2016-07-23T05:39:52.642Z,99.99
2016-07-23T05:40:52.641Z,99.99
2016-07-23T05:41:52.642Z,99.99
2016-07-23T05:42:52.620Z,99.99
2016-07-23T05:43:52.619Z,99.99
2016-07-23T05:44:52.637Z,99.99
2016-07-23T05:45:52.587Z,99.99
2016-07-23T05:46:51.871Z,99.99
2016-07-23T05:47:52.566Z,99.99
2016-07-23T05:48:52.570Z,99.99
2016-07-23T05:49:51.829Z,99.99
2016-07-23T05:50:52.536Z,99.99
2016-07-23T05:51:52.540Z,99.99
2016-07-23T05:52:52.523Z,99.99
2016-07-23T05:53:52.518Z,99.99
2016-07-23T05:54:52.510Z,99.99
2016-07-23T05:55:52.495Z,99.99
2016-07-23T05:56:52.491Z,99.99
2016-07-23T05:57:52.491Z,99.99
2016-07-23T05:58:52.461Z,99.99
2016-07-23T05:59:52.457Z,99.99
2016-07-23T06:00:52.437Z,99.99
2016-07-23T06:01:52.426Z,99.99
2016-07-23T06:02:52.422Z,99.99
2016-07-23T06:03:52.411Z,99.99
2016-07-23T06:04:52.403Z,99.99
2016-07-23T06:05:52.396Z,99.99
2016-07-23T06:06:52.401Z,99.99
2016-07-23T06:07:52.373Z,99.99
2016-07-23T06:08:52.381Z,99.99
2016-07-23T06:09:52.348Z,99.99
2016-07-23T06:10:52.357Z,99.99
2016-07-23T06:11:51.618Z,99.99
2016-07-23T06:12:52.325Z,99.99
2016-07-23T06:13:52.317Z,99.99
2016-07-23T06:14:51.601Z,99.99
2016-07-23T06:15:52.296Z,99.99
2016-07-23T06:16:52.289Z,99.99
2016-07-23T06:17:52.274Z,99.99
2016-07-23T06:18:52.275Z,99.79
2016-07-23T06:19:52.258Z,99.99
2016-07-23T06:20:52.244Z,99.6
2016-07-23T06:21:52.236Z,98.83
2016-07-23T06:22:52.235Z,98.25
2016-07-23T06:23:52.225Z,98.25
2016-07-23T06:24:52.210Z,98.54
2016-07-23T06:25:52.193Z,98.44
2016-07-23T06:26:51.483Z,97.86
2016-07-23T06:27:51.471Z,98.73
2016-07-23T06:28:52.174Z,98.54
2016-07-23T06:29:52.163Z,98.93
2016-07-23T06:30:51.439Z,98.44
2016-07-23T06:31:52.164Z,98.35
2016-07-23T06:32:52.139Z,98.54
2016-07-23T06:33:52.132Z,98.2
2016-07-23T06:34:52.181Z,97.72
2016-07-23T06:35:52.116Z,98
2016-07-23T06:36:52.098Z,97.72
2016-07-23T06:37:52.095Z,97.91
2016-07-23T06:38:52.100Z,98.2
2016-07-23T06:39:52.088Z,97.86
2016-07-23T06:40:52.128Z,97.81
2016-07-23T06:41:52.065Z,96.94
2016-07-23T06:42:52.048Z,96.65
2016-07-23T06:43:52.045Z,96.94
2016-07-23T06:44:52.031Z,96.55
2016-07-23T06:45:52.028Z,96.65
2016-07-23T06:46:51.310Z,96.65
2016-07-23T06:47:52.019Z,96.22
2016-07-23T06:48:51.990Z,95.87
2016-07-23T06:49:51.982Z,96.02
2016-07-23T06:50:51.280Z,95.54
2016-07-23T06:51:51.963Z,95.68
2016-07-23T06:52:51.968Z,95.05
2016-07-23T06:53:51.951Z,95.25
2016-07-23T06:54:51.947Z,94.57
2016-07-23T06:55:51.220Z,94.76
2016-07-23T06:56:51.929Z,94.09
2016-07-23T06:57:51.920Z,94.09
2016-07-23T06:58:51.919Z,94.28
2016-07-23T06:59:51.909Z,94.57
2016-07-23T07:00:51.890Z,93.74
2016-07-23T07:01:51.883Z,93.65
2016-07-23T07:02:51.874Z,92.58
2016-07-23T07:03:51.159Z,92.97
2016-07-23T07:04:51.864Z,93.55
2016-07-23T07:05:51.858Z,92.87
2016-07-23T07:06:51.856Z,92.97
2016-07-23T07:07:51.841Z,92.87
2016-07-23T07:08:51.826Z,92.87
2016-07-23T07:09:51.820Z,92.24
2016-07-23T07:10:51.101Z,92.33
2016-07-23T07:11:51.816Z,92.39
2016-07-23T07:12:51.799Z,92.33
2016-07-23T07:13:51.791Z,92.97
2016-07-23T07:14:51.791Z,92.39
2016-07-23T07:15:51.771Z,92.33
2016-07-23T07:16:51.770Z,92.63
2016-07-23T07:17:51.035Z,91.85
2016-07-23T07:18:51.029Z,90.73
2016-07-23T07:19:51.738Z,90.25
2016-07-23T07:20:51.738Z,90.59
2016-07-23T07:21:51.732Z,90.5
2016-07-23T07:22:51.722Z,90.69
2016-07-23T07:23:51.719Z,90.2
2016-07-23T07:24:51.705Z,90.59
2016-07-23T07:25:51.703Z,91.27
2016-07-23T07:26:51.689Z,90.59
2016-07-23T07:27:51.681Z,90.3
2016-07-23T07:28:51.692Z,90.78
2016-07-23T07:29:50.950Z,90.64
2016-07-23T07:30:51.660Z,90.83
2016-07-23T07:31:51.650Z,90.83
2016-07-23T07:32:51.638Z,90.64
2016-07-23T07:33:50.904Z,90.64
2016-07-23T07:34:50.907Z,90.64
2016-07-23T07:35:50.912Z,91.22
2016-07-23T07:36:51.610Z,91.02
2016-07-23T07:37:51.592Z,90.44
2016-07-23T07:38:51.596Z,90.44
2016-07-23T07:39:51.591Z,90.64
2016-07-23T07:40:50.864Z,90.93
2016-07-23T07:41:51.568Z,91.51
2016-07-23T07:42:51.622Z,91.41
2016-07-23T07:43:50.852Z,92.38
2016-07-23T07:44:50.903Z,92.96
2016-07-23T07:45:51.537Z,93.21
2016-07-23T07:46:51.553Z,93.5
2016-07-23T07:47:51.532Z,93.98
2016-07-23T07:48:51.514Z,94.47
2016-07-23T07:49:51.508Z,94.18
2016-07-23T07:50:51.507Z,93.88
2016-07-23T07:51:51.495Z,93.21
2016-07-23T07:52:51.496Z,92.77
2016-07-23T07:53:51.476Z,92.67
2016-07-23T07:54:51.478Z,92.19
2016-07-23T07:55:51.458Z,91.89
2016-07-23T07:56:50.745Z,91.46
2016-07-23T07:57:51.452Z,92.23
2016-07-23T07:58:51.441Z,91.94
2016-07-23T07:59:51.432Z,92.33
2016-07-23T08:00:51.426Z,91.65
2016-07-23T08:01:50.700Z,91.36
2016-07-23T08:02:51.416Z,91.75
2016-07-23T08:03:51.402Z,92.23
2016-07-23T08:04:50.693Z,91.75
2016-07-23T08:05:50.671Z,92.23
2016-07-23T08:06:51.385Z,92.52
2016-07-23T08:07:51.369Z,92.43
2016-07-23T08:08:50.659Z,92.72
2016-07-23T08:09:51.371Z,92.47
2016-07-23T08:10:51.354Z,91.5
2016-07-23T08:11:51.342Z,91.16
2016-07-23T08:12:51.350Z,90.67
2016-07-23T08:13:51.333Z,90.48
2016-07-23T08:14:50.618Z,90.48
2016-07-23T08:15:51.321Z,90.38
2016-07-23T08:16:50.670Z,90.38
2016-07-23T08:17:50.597Z,90.52
2016-07-23T08:18:51.295Z,90.52
2016-07-23T08:19:51.297Z,90.52
2016-07-23T08:20:50.641Z,90.14
2016-07-23T08:21:50.558Z,90.14
2016-07-23T08:22:51.262Z,90.72
2016-07-23T08:23:51.269Z,90.58
2016-07-23T08:24:50.553Z,90.87
2016-07-23T08:25:51.357Z,90.38
2016-07-23T08:26:51.245Z,89.7
2016-07-23T08:27:50.582Z,89.17
2016-07-23T08:28:50.508Z,89.51
2016-07-23T08:29:51.237Z,89.51
2016-07-23T08:30:50.492Z,90.09
2016-07-23T08:31:51.213Z,89.65
2016-07-23T08:32:51.205Z,89.75
2016-07-23T08:33:50.479Z,89.26
2016-07-23T08:34:51.209Z,88.82
2016-07-23T08:35:51.175Z,88.33
2016-07-23T08:36:51.180Z,88.14
2016-07-23T08:37:51.189Z,88.33
2016-07-23T08:38:51.177Z,88.18
2016-07-23T08:39:51.156Z,87.5
2016-07-23T08:40:51.153Z,88.18
2016-07-23T08:41:51.149Z,87.95
2016-07-23T08:42:51.138Z,88.04
2016-07-23T08:43:51.136Z,87.12
2016-07-23T08:44:51.124Z,87.85
2016-07-23T08:45:51.130Z,87.75
2016-07-23T08:46:51.116Z,87.95
2016-07-23T08:47:50.386Z,88.24
2016-07-23T08:48:50.390Z,87.75
2016-07-23T08:49:50.381Z,87.85
2016-07-23T08:50:50.436Z,88.33
2016-07-23T08:51:51.105Z,88.24
2016-07-23T08:52:51.079Z,88.43
2016-07-23T08:53:50.371Z,88.92
2016-07-23T08:54:51.072Z,88.43
2016-07-23T08:55:51.060Z,89.31
2016-07-23T08:56:50.343Z,88.58
2016-07-23T08:57:51.048Z,89.07
2016-07-23T08:58:50.420Z,89.01
2016-07-23T08:59:50.335Z,89.4
2016-07-23T09:00:50.312Z,89.11
2016-07-23T09:01:51.027Z,89.11
2016-07-23T09:02:51.030Z,89.31
2016-07-23T09:03:50.300Z,88.43
2016-07-23T09:04:51.014Z,88.62
2016-07-23T09:05:50.274Z,88.72
2016-07-23T09:06:50.991Z,88.14
2016-07-23T09:07:50.986Z,88.09
2016-07-23T09:08:50.980Z,87.85
2016-07-23T09:09:50.968Z,88.18
2016-07-23T09:10:51.019Z,88.28
2016-07-23T09:11:50.967Z,88.53
2016-07-23T09:12:50.270Z,87.99
2016-07-23T09:13:50.952Z,87.6
2016-07-23T09:14:50.931Z,88.38
2016-07-23T09:15:50.935Z,88.04
2016-07-23T09:16:50.940Z,87.5
2016-07-23T09:17:50.926Z,87.89
2016-07-23T09:18:50.195Z,87.5
2016-07-23T09:19:50.911Z,87.89
2016-07-23T09:20:50.902Z,88.04
2016-07-23T09:21:50.900Z,87.21
2016-07-23T09:22:50.900Z,87.7
2016-07-23T09:23:50.887Z,87.4
2016-07-23T09:24:50.166Z,87.21
2016-07-23T09:25:50.877Z,87.99
2016-07-23T09:26:50.875Z,87.3
2016-07-23T09:27:50.862Z,87.12
2016-07-23T09:28:50.849Z,86.82
2016-07-23T09:29:50.860Z,86.77
2016-07-23T09:30:50.850Z,86.57
2016-07-23T09:31:50.842Z,86.57
2016-07-23T09:32:50.136Z,86.47
2016-07-23T09:33:50.830Z,87.16
2016-07-23T09:34:50.818Z,87.45
2016-07-23T09:35:50.827Z,87.6
2016-07-23T09:36:50.805Z,86.72
2016-07-23T09:37:50.833Z,87.3
2016-07-23T09:38:50.794Z,88.28
2016-07-23T09:39:50.860Z,87.7
2016-07-23T09:40:50.790Z,87.99
2016-07-23T09:41:50.788Z,88.38
2016-07-23T09:42:50.778Z,88.86
2016-07-23T09:43:50.769Z,88.43
2016-07-23T09:44:50.760Z,87.55
2016-07-23T09:45:50.761Z,87.95
2016-07-23T09:46:50.759Z,88.53
2016-07-23T09:47:50.741Z,87.95
2016-07-23T09:48:50.766Z,89.21
2016-07-23T09:49:50.738Z,89.07
2016-07-23T09:50:50.027Z,89.55
2016-07-23T09:51:50.712Z,89.84
2016-07-23T09:52:50.727Z,89.45
2016-07-23T09:53:50.701Z,89.89
2016-07-23T09:54:50.697Z,89.4
2016-07-23T09:55:50.700Z,89.79
2016-07-23T09:56:50.689Z,89.26
2016-07-23T09:57:50.676Z,89.21
2016-07-23T09:58:50.671Z,89.59
2016-07-23T09:59:50.667Z,89.89
2016-07-23T10:00:50.652Z,89.31
2016-07-23T10:01:50.658Z,89.5
2016-07-23T10:02:50.649Z,89.69
2016-07-23T10:03:49.916Z,88.62
2016-07-23T10:04:50.648Z,88.04
2016-07-23T10:05:49.906Z,87.55
2016-07-23T10:06:50.628Z,87.85
2016-07-23T10:07:50.605Z,89.11
2016-07-23T10:08:50.619Z,89.11
2016-07-23T10:09:50.595Z,89.11
2016-07-23T10:10:49.884Z,89.31
2016-07-23T10:11:50.589Z,89.5
2016-07-23T10:12:50.571Z,89.69
2016-07-23T10:13:50.568Z,90.28
2016-07-23T10:14:50.569Z,90.52
2016-07-23T10:15:50.567Z,90.23
2016-07-23T10:16:49.829Z,89.75
2016-07-23T10:17:49.828Z,89.4
2016-07-23T10:18:50.536Z,88.43
2016-07-23T10:19:49.808Z,88.92
2016-07-23T10:20:49.810Z,90.04
2016-07-23T10:21:50.528Z,89.65
2016-07-23T10:22:50.518Z,89.59
2016-07-23T10:23:50.506Z,89.4
2016-07-23T10:24:50.495Z,89.5
2016-07-23T10:25:50.507Z,89.31
2016-07-23T10:26:50.500Z,88.97
2016-07-23T10:27:50.487Z,90.23
2016-07-23T10:28:49.748Z,90.23
2016-07-23T10:29:49.748Z,90.62
2016-07-23T10:30:50.461Z,89.94
2016-07-23T10:31:49.727Z,89.94
2016-07-23T10:32:50.435Z,89.94
2016-07-23T10:33:50.437Z,90.62
2016-07-23T10:34:49.714Z,91.45
2016-07-23T10:35:50.415Z,91.4
2016-07-23T10:36:49.691Z,91.3
2016-07-23T10:37:50.401Z,91.01
2016-07-23T10:38:50.397Z,90.04
2016-07-23T10:39:50.390Z,89.84
2016-07-23T10:40:50.388Z,90.67
2016-07-23T10:41:50.374Z,91.06
2016-07-23T10:42:50.368Z,88.73
2016-07-23T10:43:50.367Z,89.07
2016-07-23T10:44:50.373Z,87.72
2016-07-23T10:45:49.633Z,87.43
2016-07-23T10:46:50.335Z,88.01
2016-07-23T10:47:50.330Z,87.29
2016-07-23T10:48:50.322Z,87.48
2016-07-23T10:49:50.319Z,87.87
2016-07-23T10:50:49.594Z,87.87
2016-07-23T10:51:50.310Z,88.06
2016-07-23T10:52:50.310Z,87.87
2016-07-23T10:53:49.571Z,86.41
2016-07-23T10:54:50.274Z,86.32
2016-07-23T10:55:49.555Z,86.32
2016-07-23T10:56:50.280Z,86.22
2016-07-23T10:57:50.259Z,86.12
2016-07-23T10:58:50.258Z,85.44
2016-07-23T10:59:49.532Z,86.12
2016-07-23T11:00:50.239Z,86.41
2016-07-23T11:01:49.519Z,85.35
2016-07-23T11:02:49.520Z,85.35
2016-07-23T11:03:50.209Z,85.93
2016-07-23T11:04:50.207Z,85.93
2016-07-23T11:05:49.477Z,86.9
2016-07-23T11:06:50.191Z,85.93
2016-07-23T11:07:49.470Z,85.35
2016-07-23T11:08:50.176Z,85.29
2016-07-23T11:09:50.181Z,85.49
2016-07-23T11:10:50.157Z,86.36
2016-07-23T11:11:50.158Z,85.58
2016-07-23T11:12:50.145Z,85.92
2016-07-23T11:13:50.136Z,85.68
2016-07-23T11:14:50.121Z,85.19
2016-07-23T11:15:50.130Z,85.78
2016-07-23T11:16:49.402Z,84.66
2016-07-23T11:17:50.104Z,84.46
2016-07-23T11:18:49.384Z,84.91
2016-07-23T11:19:50.108Z,84.42
2016-07-23T11:20:50.090Z,85.44
2016-07-23T11:21:49.363Z,84.38
2016-07-23T11:22:50.072Z,85.11
2016-07-23T11:23:49.350Z,85.69
2016-07-23T11:24:50.060Z,84.72
2016-07-23T11:25:49.333Z,84.67
2016-07-23T11:26:50.037Z,85.21
2016-07-23T11:27:49.325Z,85.4
2016-07-23T11:28:49.314Z,85.5
2016-07-23T11:29:50.017Z,84.86
2016-07-23T11:30:49.294Z,84.09
2016-07-23T11:31:49.291Z,84.28
2016-07-23T11:32:49.280Z,84.09
2016-07-23T11:33:49.981Z,83.99
2016-07-23T11:34:49.982Z,83.74
2016-07-23T11:35:49.977Z,83.25
2016-07-23T11:36:49.258Z,83.74
2016-07-23T11:37:49.959Z,84.22
2016-07-23T11:38:49.945Z,83.74
2016-07-23T11:39:49.945Z,84.03
2016-07-23T11:40:49.217Z,83.8
2016-07-23T11:41:49.217Z,84.28
2016-07-23T11:42:49.925Z,84.77
2016-07-23T11:43:49.914Z,84.09
2016-07-23T11:44:49.906Z,84.63
2016-07-23T11:45:49.898Z,85.79
2016-07-23T11:46:49.890Z,86.47
2016-07-23T11:47:49.168Z,85.5
2016-07-23T11:48:49.877Z,85.3
2016-07-23T11:49:49.149Z,86.18
2016-07-23T11:50:49.859Z,86.08
2016-07-23T11:51:49.845Z,84.67
2016-07-23T11:52:49.846Z,84.28
2016-07-23T11:53:49.116Z,83.64
2016-07-23T11:54:49.827Z,84.19
2016-07-23T11:55:49.812Z,85.21
2016-07-23T11:56:49.099Z,85.3
2016-07-23T11:57:49.813Z,86.13
2016-07-23T11:58:49.796Z,86.33
2016-07-23T11:59:49.067Z,86.62
2016-07-23T12:00:49.807Z,85.94
2016-07-23T12:01:49.758Z,85.5
2016-07-23T12:02:49.058Z,84.72
2016-07-23T12:03:49.769Z,84.57
2016-07-23T12:04:49.744Z,84.09
2016-07-23T12:05:49.736Z,84.91
2016-07-23T12:06:49.733Z,84.03
2016-07-23T12:07:49.726Z,83
2016-07-23T12:08:49.713Z,82.9
2016-07-23T12:09:49.706Z,82.65
2016-07-23T12:10:49.695Z,82.95
2016-07-23T12:11:49.699Z,82.95
2016-07-23T12:12:48.971Z,82.95
2016-07-23T12:13:49.682Z,82.95
2016-07-23T12:14:49.676Z,83.84
2016-07-23T12:15:49.675Z,84.32
2016-07-23T12:16:48.939Z,84.22
2016-07-23T12:17:49.646Z,84.17
2016-07-23T12:18:49.648Z,84.27
2016-07-23T12:19:48.968Z,82.9
2016-07-23T12:20:49.626Z,82.95
2016-07-23T12:21:48.939Z,83.92
2016-07-23T12:22:49.613Z,83.24
2016-07-23T12:23:49.606Z,82.46
2016-07-23T12:24:49.598Z,81.88
2016-07-23T12:25:49.589Z,81.59
2016-07-23T12:26:49.589Z,82.95
2016-07-23T12:27:49.625Z,83.82
2016-07-23T12:28:49.567Z,82.7
2016-07-23T12:29:49.567Z,81.68
2016-07-23T12:30:49.553Z,81.98
2016-07-23T12:31:48.838Z,80.94
2016-07-23T12:32:49.539Z,81.73
2016-07-23T12:33:49.537Z,81.92
2016-07-23T12:34:48.809Z,82.02
2016-07-23T12:35:49.538Z,82.4
2016-07-23T12:36:49.511Z,82.02
2016-07-23T12:37:48.786Z,82.46
2016-07-23T12:38:49.503Z,82.37
2016-07-23T12:39:49.499Z,83.34
2016-07-23T12:40:49.496Z,83.97
2016-07-23T12:41:49.482Z,84.27
2016-07-23T12:42:49.474Z,83.84
2016-07-23T12:43:48.743Z,83.78
2016-07-23T12:44:49.458Z,83.53
2016-07-23T12:45:49.459Z,83.44
2016-07-23T12:46:49.439Z,82.71
2016-07-23T12:47:48.727Z,83.2
2016-07-23T12:48:48.711Z,83.88
2016-07-23T12:49:48.710Z,83.59
2016-07-23T12:50:49.406Z,83.1
2016-07-23T12:51:48.690Z,83.59
2016-07-23T12:52:49.408Z,83.59
2016-07-23T12:53:49.396Z,83.44
2016-07-23T12:54:49.382Z,83.49